sensor_id;sensor_type;location;lat;lon;timestamp;P1;durP1;ratioP1;P2;durP2;ratioP2
77868;SDS011;67231;59.144;37.934;2024-01-30T00:01:25;49.30;;;22.63;;
77868;SDS011;67231;59.144;37.934;2024-01-30T00:03:51;39.20;;;17.55;;
77868;SDS011;67231;59.144;37.934;2024-01-30T00:06:18;22.80;;;11.40;;
77868;SDS011;67231;59.144;37.934;2024-01-30T00:08:47;28.58;;;14.55;;
77868;SDS011;67231;59.144;37.934;2024-01-30T00:11:15;37.25;;;17.77;;
77868;SDS011;67231;59.144;37.934;2024-01-30T00:13:42;46.47;;;19.67;;
77868;SDS011;67231;59.144;37.934;2024-01-30T00:16:08;53.20;;;23.40;;
77868;SDS011;67231;59.144;37.934;2024-01-30T00:18:35;56.75;;;22.25;;
77868;SDS011;67231;59.144;37.934;2024-01-30T00:21:01;65.85;;;21.48;;
77868;SDS011;67231;59.144;37.934;2024-01-30T00:23:29;61.90;;;21.60;;
77868;SDS011;67231;59.144;37.934;2024-01-30T00:25:55;46.22;;;15.88;;
77868;SDS011;67231;59.144;37.934;2024-01-30T00:28:21;59.38;;;20.02;;
77868;SDS011;67231;59.144;37.934;2024-01-30T00:30:47;70.25;;;23.92;;
77868;SDS011;67231;59.144;37.934;2024-01-30T00:33:14;65.63;;;19.33;;
77868;SDS011;67231;59.144;37.934;2024-01-30T00:35:42;75.88;;;23.58;;
77868;SDS011;67231;59.144;37.934;2024-01-30T00:38:08;75.22;;;27.35;;
77868;SDS011;67231;59.144;37.934;2024-01-30T00:40:34;75.57;;;29.77;;
77868;SDS011;67231;59.144;37.934;2024-01-30T00:43:00;73.13;;;33.45;;
77868;SDS011;67231;59.144;37.934;2024-01-30T00:45:27;79.65;;;24.23;;
77868;SDS011;67231;59.144;37.934;2024-01-30T00:47:54;72.53;;;24.00;;
77868;SDS011;67231;59.144;37.934;2024-01-30T00:50:20;80.85;;;32.00;;
77868;SDS011;67231;59.144;37.934;2024-01-30T00:52:46;47.42;;;17.02;;
77868;SDS011;67231;59.144;37.934;2024-01-30T00:55:13;50.75;;;17.55;;
77868;SDS011;67231;59.144;37.934;2024-01-30T00:57:40;52.58;;;17.10;;
77868;SDS011;67231;59.144;37.934;2024-01-30T01:00:07;81.40;;;26.45;;
77868;SDS011;67231;59.144;37.934;2024-01-30T01:02:35;76.57;;;24.33;;
77868;SDS011;67231;59.144;37.934;2024-01-30T01:05:02;77.15;;;25.50;;
77868;SDS011;67231;59.144;37.934;2024-01-30T01:07:29;76.75;;;26.33;;
77868;SDS011;67231;59.144;37.934;2024-01-30T01:09:55;85.28;;;28.25;;
77868;SDS011;67231;59.144;37.934;2024-01-30T01:12:22;71.32;;;27.88;;
77868;SDS011;67231;59.144;37.934;2024-01-30T01:14:48;77.93;;;35.40;;
77868;SDS011;67231;59.144;37.934;2024-01-30T01:17:14;79.25;;;31.30;;
77868;SDS011;67231;59.144;37.934;2024-01-30T01:19:41;70.53;;;35.50;;
77868;SDS011;67231;59.144;37.934;2024-01-30T01:22:07;93.55;;;38.33;;
77868;SDS011;67231;59.144;37.934;2024-01-30T01:24:35;85.13;;;34.95;;
77868;SDS011;67231;59.144;37.934;2024-01-30T01:27:01;77.85;;;30.45;;
77868;SDS011;67231;59.144;37.934;2024-01-30T01:29:28;81.20;;;30.63;;
77868;SDS011;67231;59.144;37.934;2024-01-30T01:31:55;106.80;;;38.15;;
77868;SDS011;67231;59.144;37.934;2024-01-30T01:34:22;94.32;;;35.33;;
77868;SDS011;67231;59.144;37.934;2024-01-30T01:36:50;83.68;;;32.78;;
77868;SDS011;67231;59.144;37.934;2024-01-30T01:39:17;64.82;;;22.77;;
77868;SDS011;67231;59.144;37.934;2024-01-30T01:41:43;72.90;;;30.17;;
77868;SDS011;67231;59.144;37.934;2024-01-30T01:44:10;65.60;;;24.33;;
77868;SDS011;67231;59.144;37.934;2024-01-30T01:46:36;70.60;;;31.88;;
77868;SDS011;67231;59.144;37.934;2024-01-30T01:49:05;46.92;;;15.65;;
77868;SDS011;67231;59.144;37.934;2024-01-30T01:51:33;77.05;;;29.17;;
77868;SDS011;67231;59.144;37.934;2024-01-30T01:56:29;100.65;;;33.00;;
77868;SDS011;67231;59.144;37.934;2024-01-30T01:58:58;84.97;;;27.73;;
77868;SDS011;67231;59.144;37.934;2024-01-30T02:01:30;81.90;;;29.92;;
77868;SDS011;67231;59.144;37.934;2024-01-30T02:03:59;80.47;;;29.70;;
77868;SDS011;67231;59.144;37.934;2024-01-30T02:06:26;63.28;;;22.75;;
77868;SDS011;67231;59.144;37.934;2024-01-30T02:08:53;71.35;;;24.48;;
77868;SDS011;67231;59.144;37.934;2024-01-30T02:11:20;66.93;;;24.63;;
77868;SDS011;67231;59.144;37.934;2024-01-30T02:13:49;64.65;;;25.60;;
77868;SDS011;67231;59.144;37.934;2024-01-30T02:16:17;83.25;;;26.65;;
77868;SDS011;67231;59.144;37.934;2024-01-30T02:18:43;81.55;;;24.83;;
77868;SDS011;67231;59.144;37.934;2024-01-30T02:21:32;75.78;;;20.75;;
77868;SDS011;67231;59.144;37.934;2024-01-30T02:23:59;54.75;;;16.55;;
77868;SDS011;67231;59.144;37.934;2024-01-30T02:26:25;52.15;;;16.95;;
77868;SDS011;67231;59.144;37.934;2024-01-30T02:28:52;60.40;;;20.77;;
77868;SDS011;67231;59.144;37.934;2024-01-30T02:31:18;62.13;;;21.65;;
77868;SDS011;67231;59.144;37.934;2024-01-30T02:33:44;83.82;;;26.52;;
77868;SDS011;67231;59.144;37.934;2024-01-30T02:36:11;81.00;;;27.67;;
77868;SDS011;67231;59.144;37.934;2024-01-30T02:38:37;82.90;;;28.13;;
77868;SDS011;67231;59.144;37.934;2024-01-30T02:41:03;50.60;;;17.17;;
77868;SDS011;67231;59.144;37.934;2024-01-30T02:43:29;58.70;;;20.02;;
77868;SDS011;67231;59.144;37.934;2024-01-30T02:45:56;81.95;;;26.73;;
77868;SDS011;67231;59.144;37.934;2024-01-30T02:48:24;38.00;;;12.85;;
77868;SDS011;67231;59.144;37.934;2024-01-30T02:50:50;43.33;;;15.60;;
77868;SDS011;67231;59.144;37.934;2024-01-30T02:53:16;40.28;;;13.73;;
77868;SDS011;67231;59.144;37.934;2024-01-30T02:55:43;36.22;;;12.85;;
77868;SDS011;67231;59.144;37.934;2024-01-30T02:58:09;45.00;;;12.57;;
77868;SDS011;67231;59.144;37.934;2024-01-30T03:00:35;27.08;;;8.40;;
77868;SDS011;67231;59.144;37.934;2024-01-30T03:03:02;28.20;;;9.23;;
77868;SDS011;67231;59.144;37.934;2024-01-30T03:05:28;34.47;;;11.15;;
77868;SDS011;67231;59.144;37.934;2024-01-30T03:07:55;23.98;;;7.53;;
77868;SDS011;67231;59.144;37.934;2024-01-30T03:10:21;12.27;;;4.60;;
77868;SDS011;67231;59.144;37.934;2024-01-30T03:12:47;37.17;;;11.80;;
77868;SDS011;67231;59.144;37.934;2024-01-30T03:15:14;34.95;;;10.98;;
77868;SDS011;67231;59.144;37.934;2024-01-30T03:17:40;25.45;;;8.93;;
77868;SDS011;67231;59.144;37.934;2024-01-30T03:20:07;12.43;;;4.80;;
77868;SDS011;67231;59.144;37.934;2024-01-30T03:22:33;20.52;;;6.82;;
77868;SDS011;67231;59.144;37.934;2024-01-30T03:25:00;14.00;;;5.57;;
77868;SDS011;67231;59.144;37.934;2024-01-30T03:27:26;16.58;;;5.72;;
77868;SDS011;67231;59.144;37.934;2024-01-30T03:29:52;14.52;;;5.18;;
77868;SDS011;67231;59.144;37.934;2024-01-30T03:32:19;13.70;;;4.90;;
77868;SDS011;67231;59.144;37.934;2024-01-30T03:34:45;13.50;;;5.53;;
77868;SDS011;67231;59.144;37.934;2024-01-30T03:37:11;19.10;;;6.35;;
77868;SDS011;67231;59.144;37.934;2024-01-30T03:39:37;13.90;;;5.90;;
77868;SDS011;67231;59.144;37.934;2024-01-30T03:42:04;16.52;;;6.25;;
77868;SDS011;67231;59.144;37.934;2024-01-30T03:44:30;14.50;;;5.63;;
77868;SDS011;67231;59.144;37.934;2024-01-30T03:46:57;17.17;;;6.25;;
77868;SDS011;67231;59.144;37.934;2024-01-30T03:49:23;15.10;;;5.50;;
77868;SDS011;67231;59.144;37.934;2024-01-30T03:51:49;13.48;;;5.22;;
77868;SDS011;67231;59.144;37.934;2024-01-30T03:54:15;12.43;;;5.47;;
77868;SDS011;67231;59.144;37.934;2024-01-30T03:56:42;13.50;;;4.60;;
77868;SDS011;67231;59.144;37.934;2024-01-30T03:59:08;14.20;;;5.38;;
77868;SDS011;67231;59.144;37.934;2024-01-30T04:01:34;10.48;;;4.25;;
77868;SDS011;67231;59.144;37.934;2024-01-30T04:04:01;9.85;;;4.25;;
77868;SDS011;67231;59.144;37.934;2024-01-30T04:06:27;11.13;;;4.68;;
77868;SDS011;67231;59.144;37.934;2024-01-30T04:08:53;14.27;;;5.63;;
77868;SDS011;67231;59.144;37.934;2024-01-30T04:11:20;13.55;;;5.30;;
77868;SDS011;67231;59.144;37.934;2024-01-30T04:13:46;14.38;;;4.93;;
77868;SDS011;67231;59.144;37.934;2024-01-30T04:16:20;15.63;;;6.05;;
77868;SDS011;67231;59.144;37.934;2024-01-30T04:18:51;19.88;;;5.88;;
77868;SDS011;67231;59.144;37.934;2024-01-30T04:21:18;20.98;;;6.03;;
77868;SDS011;67231;59.144;37.934;2024-01-30T04:23:48;14.77;;;5.05;;
77868;SDS011;67231;59.144;37.934;2024-01-30T04:26:14;12.27;;;4.57;;
77868;SDS011;67231;59.144;37.934;2024-01-30T04:28:41;9.60;;;3.92;;
77868;SDS011;67231;59.144;37.934;2024-01-30T04:31:08;12.40;;;4.22;;
77868;SDS011;67231;59.144;37.934;2024-01-30T04:33:34;9.27;;;4.07;;
77868;SDS011;67231;59.144;37.934;2024-01-30T04:36:00;9.02;;;4.57;;
77868;SDS011;67231;59.144;37.934;2024-01-30T04:38:27;9.50;;;4.25;;
77868;SDS011;67231;59.144;37.934;2024-01-30T04:40:54;20.02;;;6.95;;
77868;SDS011;67231;59.144;37.934;2024-01-30T04:43:20;13.45;;;4.63;;
77868;SDS011;67231;59.144;37.934;2024-01-30T04:45:47;10.20;;;3.97;;
77868;SDS011;67231;59.144;37.934;2024-01-30T04:48:18;11.65;;;4.22;;
77868;SDS011;67231;59.144;37.934;2024-01-30T04:50:44;12.10;;;4.93;;
77868;SDS011;67231;59.144;37.934;2024-01-30T04:53:11;8.10;;;4.43;;
77868;SDS011;67231;59.144;37.934;2024-01-30T04:55:37;11.52;;;4.63;;
77868;SDS011;67231;59.144;37.934;2024-01-30T04:58:03;10.98;;;4.20;;
77868;SDS011;67231;59.144;37.934;2024-01-30T05:00:30;11.93;;;4.15;;
77868;SDS011;67231;59.144;37.934;2024-01-30T05:02:56;8.88;;;3.90;;
77868;SDS011;67231;59.144;37.934;2024-01-30T05:05:22;13.65;;;3.92;;
77868;SDS011;67231;59.144;37.934;2024-01-30T05:07:49;11.05;;;4.40;;
77868;SDS011;67231;59.144;37.934;2024-01-30T05:10:15;11.77;;;4.07;;
77868;SDS011;67231;59.144;37.934;2024-01-30T05:12:41;10.88;;;3.60;;
77868;SDS011;67231;59.144;37.934;2024-01-30T05:15:08;10.60;;;4.35;;
77868;SDS011;67231;59.144;37.934;2024-01-30T05:17:35;12.73;;;4.80;;
77868;SDS011;67231;59.144;37.934;2024-01-30T05:20:01;13.00;;;4.43;;
77868;SDS011;67231;59.144;37.934;2024-01-30T05:22:30;6.82;;;3.20;;
77868;SDS011;67231;59.144;37.934;2024-01-30T05:24:56;10.95;;;3.72;;
77868;SDS011;67231;59.144;37.934;2024-01-30T05:27:23;15.02;;;4.40;;
77868;SDS011;67231;59.144;37.934;2024-01-30T05:29:49;14.32;;;4.50;;
77868;SDS011;67231;59.144;37.934;2024-01-30T05:32:16;12.70;;;5.03;;
77868;SDS011;67231;59.144;37.934;2024-01-30T05:34:42;18.60;;;5.57;;
77868;SDS011;67231;59.144;37.934;2024-01-30T05:37:08;11.68;;;4.68;;
77868;SDS011;67231;59.144;37.934;2024-01-30T05:39:35;14.73;;;5.15;;
77868;SDS011;67231;59.144;37.934;2024-01-30T05:42:01;28.75;;;10.05;;
77868;SDS011;67231;59.144;37.934;2024-01-30T05:44:28;22.63;;;7.78;;
77868;SDS011;67231;59.144;37.934;2024-01-30T05:46:54;19.02;;;6.18;;
77868;SDS011;67231;59.144;37.934;2024-01-30T05:49:21;20.30;;;6.05;;
77868;SDS011;67231;59.144;37.934;2024-01-30T05:51:47;24.92;;;7.78;;
77868;SDS011;67231;59.144;37.934;2024-01-30T05:54:14;32.53;;;10.10;;
77868;SDS011;67231;59.144;37.934;2024-01-30T05:56:40;40.15;;;12.75;;
77868;SDS011;67231;59.144;37.934;2024-01-30T05:59:07;27.88;;;9.02;;
77868;SDS011;67231;59.144;37.934;2024-01-30T06:01:33;29.13;;;9.43;;
77868;SDS011;67231;59.144;37.934;2024-01-30T06:04:00;39.08;;;11.93;;
77868;SDS011;67231;59.144;37.934;2024-01-30T06:06:27;31.63;;;9.82;;
77868;SDS011;67231;59.144;37.934;2024-01-30T06:08:53;31.10;;;8.95;;
77868;SDS011;67231;59.144;37.934;2024-01-30T06:11:21;30.23;;;9.50;;
77868;SDS011;67231;59.144;37.934;2024-01-30T06:13:48;35.60;;;10.90;;
77868;SDS011;67231;59.144;37.934;2024-01-30T06:16:14;27.67;;;8.80;;
77868;SDS011;67231;59.144;37.934;2024-01-30T06:18:40;33.20;;;10.13;;
77868;SDS011;67231;59.144;37.934;2024-01-30T06:21:07;41.08;;;13.65;;
77868;SDS011;67231;59.144;37.934;2024-01-30T06:23:33;23.60;;;7.88;;
77868;SDS011;67231;59.144;37.934;2024-01-30T06:25:59;28.25;;;9.68;;
77868;SDS011;67231;59.144;37.934;2024-01-30T06:28:26;25.50;;;8.27;;
77868;SDS011;67231;59.144;37.934;2024-01-30T06:30:52;30.05;;;8.13;;
77868;SDS011;67231;59.144;37.934;2024-01-30T06:33:18;24.02;;;8.13;;
77868;SDS011;67231;59.144;37.934;2024-01-30T06:35:45;40.42;;;10.70;;
77868;SDS011;67231;59.144;37.934;2024-01-30T06:38:11;30.65;;;9.38;;
77868;SDS011;67231;59.144;37.934;2024-01-30T06:40:39;28.20;;;10.52;;
77868;SDS011;67231;59.144;37.934;2024-01-30T06:43:05;46.33;;;15.30;;
77868;SDS011;67231;59.144;37.934;2024-01-30T06:45:31;53.63;;;17.88;;
77868;SDS011;67231;59.144;37.934;2024-01-30T06:47:58;47.40;;;17.05;;
77868;SDS011;67231;59.144;37.934;2024-01-30T06:50:24;37.67;;;11.98;;
77868;SDS011;67231;59.144;37.934;2024-01-30T06:52:51;33.80;;;10.73;;
77868;SDS011;67231;59.144;37.934;2024-01-30T06:55:18;47.17;;;13.55;;
77868;SDS011;67231;59.144;37.934;2024-01-30T06:57:44;49.25;;;15.20;;
77868;SDS011;67231;59.144;37.934;2024-01-30T07:00:11;53.83;;;16.90;;
77868;SDS011;67231;59.144;37.934;2024-01-30T07:02:37;54.50;;;16.10;;
77868;SDS011;67231;59.144;37.934;2024-01-30T07:05:04;44.50;;;13.82;;
77868;SDS011;67231;59.144;37.934;2024-01-30T07:07:30;66.20;;;20.20;;
77868;SDS011;67231;59.144;37.934;2024-01-30T07:09:56;59.08;;;19.90;;
77868;SDS011;67231;59.144;37.934;2024-01-30T07:12:23;64.82;;;20.92;;
77868;SDS011;67231;59.144;37.934;2024-01-30T07:14:52;63.92;;;20.02;;
77868;SDS011;67231;59.144;37.934;2024-01-30T07:17:19;57.22;;;17.02;;
77868;SDS011;67231;59.144;37.934;2024-01-30T07:19:45;66.30;;;21.80;;
77868;SDS011;67231;59.144;37.934;2024-01-30T07:22:12;62.28;;;20.38;;
77868;SDS011;67231;59.144;37.934;2024-01-30T07:24:42;61.72;;;19.48;;
77868;SDS011;67231;59.144;37.934;2024-01-30T07:27:10;68.93;;;21.35;;
77868;SDS011;67231;59.144;37.934;2024-01-30T07:29:37;70.10;;;23.02;;
77868;SDS011;67231;59.144;37.934;2024-01-30T07:32:03;57.33;;;19.42;;
77868;SDS011;67231;59.144;37.934;2024-01-30T07:34:29;62.60;;;19.13;;
77868;SDS011;67231;59.144;37.934;2024-01-30T07:36:56;54.15;;;19.13;;
77868;SDS011;67231;59.144;37.934;2024-01-30T07:39:23;42.33;;;15.77;;
77868;SDS011;67231;59.144;37.934;2024-01-30T07:41:49;46.30;;;15.70;;
77868;SDS011;67231;59.144;37.934;2024-01-30T07:44:15;60.92;;;18.15;;
77868;SDS011;67231;59.144;37.934;2024-01-30T07:46:42;51.97;;;14.40;;
77868;SDS011;67231;59.144;37.934;2024-01-30T07:49:08;51.80;;;16.85;;
77868;SDS011;67231;59.144;37.934;2024-01-30T07:51:36;40.97;;;13.63;;
77868;SDS011;67231;59.144;37.934;2024-01-30T07:54:02;51.25;;;15.73;;
77868;SDS011;67231;59.144;37.934;2024-01-30T07:56:28;44.00;;;14.32;;
77868;SDS011;67231;59.144;37.934;2024-01-30T07:58:55;35.88;;;11.40;;
77868;SDS011;67231;59.144;37.934;2024-01-30T08:01:21;54.05;;;17.55;;
77868;SDS011;67231;59.144;37.934;2024-01-30T08:03:47;46.67;;;14.23;;
77868;SDS011;67231;59.144;37.934;2024-01-30T08:06:14;51.22;;;16.38;;
77868;SDS011;67231;59.144;37.934;2024-01-30T08:08:40;57.67;;;14.10;;
77868;SDS011;67231;59.144;37.934;2024-01-30T08:11:06;43.92;;;14.73;;
77868;SDS011;67231;59.144;37.934;2024-01-30T08:13:33;49.70;;;16.40;;
77868;SDS011;67231;59.144;37.934;2024-01-30T08:16:00;50.65;;;15.63;;
77868;SDS011;67231;59.144;37.934;2024-01-30T08:18:26;51.05;;;15.15;;
77868;SDS011;67231;59.144;37.934;2024-01-30T08:20:53;61.67;;;20.15;;
77868;SDS011;67231;59.144;37.934;2024-01-30T08:23:19;47.45;;;14.88;;
77868;SDS011;67231;59.144;37.934;2024-01-30T08:25:46;57.47;;;21.13;;
77868;SDS011;67231;59.144;37.934;2024-01-30T08:28:12;76.28;;;25.17;;
77868;SDS011;67231;59.144;37.934;2024-01-30T08:30:38;70.20;;;25.40;;
77868;SDS011;67231;59.144;37.934;2024-01-30T08:33:05;68.32;;;26.05;;
77868;SDS011;67231;59.144;37.934;2024-01-30T08:35:32;71.43;;;25.65;;
77868;SDS011;67231;59.144;37.934;2024-01-30T08:37:59;52.78;;;20.30;;
77868;SDS011;67231;59.144;37.934;2024-01-30T08:40:26;63.05;;;24.77;;
77868;SDS011;67231;59.144;37.934;2024-01-30T08:42:52;59.55;;;23.55;;
77868;SDS011;67231;59.144;37.934;2024-01-30T08:45:18;56.63;;;22.25;;
77868;SDS011;67231;59.144;37.934;2024-01-30T08:47:50;59.30;;;21.90;;
77868;SDS011;67231;59.144;37.934;2024-01-30T08:50:16;58.70;;;24.23;;
77868;SDS011;67231;59.144;37.934;2024-01-30T08:52:43;80.60;;;25.88;;
77868;SDS011;67231;59.144;37.934;2024-01-30T08:55:09;62.22;;;25.83;;
77868;SDS011;67231;59.144;37.934;2024-01-30T08:57:35;80.88;;;27.83;;
77868;SDS011;67231;59.144;37.934;2024-01-30T09:00:02;62.80;;;21.52;;
77868;SDS011;67231;59.144;37.934;2024-01-30T09:02:32;77.47;;;25.60;;
77868;SDS011;67231;59.144;37.934;2024-01-30T09:04:58;75.22;;;25.10;;
77868;SDS011;67231;59.144;37.934;2024-01-30T09:07:25;90.28;;;29.90;;
77868;SDS011;67231;59.144;37.934;2024-01-30T09:09:51;99.78;;;33.47;;
77868;SDS011;67231;59.144;37.934;2024-01-30T09:12:17;90.93;;;31.13;;
77868;SDS011;67231;59.144;37.934;2024-01-30T09:14:47;88.70;;;30.00;;
77868;SDS011;67231;59.144;37.934;2024-01-30T09:17:14;79.55;;;26.80;;
77868;SDS011;67231;59.144;37.934;2024-01-30T09:19:40;63.30;;;24.08;;
77868;SDS011;67231;59.144;37.934;2024-01-30T09:22:07;79.15;;;26.83;;
77868;SDS011;67231;59.144;37.934;2024-01-30T09:24:33;73.65;;;26.40;;
77868;SDS011;67231;59.144;37.934;2024-01-30T09:27:00;75.57;;;27.58;;
77868;SDS011;67231;59.144;37.934;2024-01-30T09:29:28;76.40;;;29.40;;
77868;SDS011;67231;59.144;37.934;2024-01-30T09:31:54;97.32;;;34.85;;
77868;SDS011;67231;59.144;37.934;2024-01-30T09:34:20;72.28;;;29.38;;
77868;SDS011;67231;59.144;37.934;2024-01-30T09:36:47;91.15;;;33.70;;
77868;SDS011;67231;59.144;37.934;2024-01-30T09:39:13;88.13;;;31.25;;
77868;SDS011;67231;59.144;37.934;2024-01-30T09:41:45;83.28;;;32.33;;
77868;SDS011;67231;59.144;37.934;2024-01-30T09:44:16;86.38;;;33.28;;
77868;SDS011;67231;59.144;37.934;2024-01-30T09:46:43;75.07;;;30.35;;
77868;SDS011;67231;59.144;37.934;2024-01-30T09:49:13;77.63;;;27.00;;
77868;SDS011;67231;59.144;37.934;2024-01-30T09:51:40;91.45;;;31.35;;
77868;SDS011;67231;59.144;37.934;2024-01-30T09:54:07;82.07;;;30.73;;
77868;SDS011;67231;59.144;37.934;2024-01-30T09:56:35;81.85;;;28.45;;
77868;SDS011;67231;59.144;37.934;2024-01-30T09:59:02;91.93;;;28.65;;
77868;SDS011;67231;59.144;37.934;2024-01-30T10:01:28;86.25;;;28.70;;
77868;SDS011;67231;59.144;37.934;2024-01-30T10:03:55;90.05;;;30.30;;
77868;SDS011;67231;59.144;37.934;2024-01-30T10:06:21;79.15;;;27.77;;
77868;SDS011;67231;59.144;37.934;2024-01-30T10:08:50;66.20;;;26.88;;
77868;SDS011;67231;59.144;37.934;2024-01-30T10:11:16;78.68;;;26.45;;
77868;SDS011;67231;59.144;37.934;2024-01-30T10:13:43;83.78;;;26.27;;
77868;SDS011;67231;59.144;37.934;2024-01-30T10:16:09;54.72;;;20.40;;
77868;SDS011;67231;59.144;37.934;2024-01-30T10:18:35;85.80;;;24.17;;
77868;SDS011;67231;59.144;37.934;2024-01-30T10:21:02;81.75;;;23.75;;
77868;SDS011;67231;59.144;37.934;2024-01-30T10:23:28;61.63;;;21.13;;
77868;SDS011;67231;59.144;37.934;2024-01-30T10:25:55;43.05;;;13.70;;
77868;SDS011;67231;59.144;37.934;2024-01-30T10:28:22;50.80;;;16.48;;
77868;SDS011;67231;59.144;37.934;2024-01-30T10:30:56;69.90;;;21.85;;
77868;SDS011;67231;59.144;37.934;2024-01-30T10:33:26;66.30;;;21.25;;
77868;SDS011;67231;59.144;37.934;2024-01-30T10:35:55;61.15;;;20.00;;
77868;SDS011;67231;59.144;37.934;2024-01-30T10:38:28;70.30;;;21.15;;
77868;SDS011;67231;59.144;37.934;2024-01-30T10:40:59;56.83;;;17.00;;
77868;SDS011;67231;59.144;37.934;2024-01-30T10:43:30;39.78;;;13.00;;
77868;SDS011;67231;59.144;37.934;2024-01-30T10:48:35;42.20;;;12.57;;
77868;SDS011;67231;59.144;37.934;2024-01-30T10:51:03;36.00;;;11.93;;
77868;SDS011;67231;59.144;37.934;2024-01-30T10:53:30;42.80;;;13.65;;
77868;SDS011;67231;59.144;37.934;2024-01-30T10:55:57;36.97;;;11.38;;
77868;SDS011;67231;59.144;37.934;2024-01-30T10:58:25;32.97;;;9.98;;
77868;SDS011;67231;59.144;37.934;2024-01-30T11:00:53;27.58;;;8.43;;
77868;SDS011;67231;59.144;37.934;2024-01-30T11:03:20;25.23;;;8.50;;
77868;SDS011;67231;59.144;37.934;2024-01-30T11:05:50;34.33;;;8.70;;
77868;SDS011;67231;59.144;37.934;2024-01-30T11:08:24;25.75;;;7.57;;
77868;SDS011;67231;59.144;37.934;2024-01-30T11:10:55;37.67;;;10.13;;
77868;SDS011;67231;59.144;37.934;2024-01-30T11:13:30;34.08;;;11.38;;
77868;SDS011;67231;59.144;37.934;2024-01-30T11:16:04;38.75;;;12.55;;
77868;SDS011;67231;59.144;37.934;2024-01-30T11:18:32;51.10;;;15.73;;
77868;SDS011;67231;59.144;37.934;2024-01-30T11:21:01;37.03;;;9.48;;
77868;SDS011;67231;59.144;37.934;2024-01-30T11:23:30;38.08;;;11.32;;
77868;SDS011;67231;59.144;37.934;2024-01-30T11:25:57;49.30;;;12.88;;
77868;SDS011;67231;59.144;37.934;2024-01-30T11:28:23;41.10;;;12.18;;
77868;SDS011;67231;59.144;37.934;2024-01-30T11:30:50;25.10;;;10.20;;
77868;SDS011;67231;59.144;37.934;2024-01-30T11:33:26;30.85;;;8.90;;
77868;SDS011;67231;59.144;37.934;2024-01-30T11:35:59;24.27;;;8.85;;
77868;SDS011;67231;59.144;37.934;2024-01-30T11:38:27;23.85;;;8.05;;
77868;SDS011;67231;59.144;37.934;2024-01-30T11:40:55;24.92;;;8.82;;
77868;SDS011;67231;59.144;37.934;2024-01-30T11:43:24;28.67;;;8.13;;
77868;SDS011;67231;59.144;37.934;2024-01-30T11:45:51;30.52;;;9.18;;
77868;SDS011;67231;59.144;37.934;2024-01-30T11:48:18;30.10;;;11.48;;
77868;SDS011;67231;59.144;37.934;2024-01-30T11:50:45;44.75;;;15.23;;
77868;SDS011;67231;59.144;37.934;2024-01-30T11:53:11;46.38;;;15.40;;
77868;SDS011;67231;59.144;37.934;2024-01-30T11:55:38;47.85;;;18.42;;
77868;SDS011;67231;59.144;37.934;2024-01-30T11:58:05;43.90;;;15.27;;
77868;SDS011;67231;59.144;37.934;2024-01-30T12:00:31;39.42;;;13.85;;
77868;SDS011;67231;59.144;37.934;2024-01-30T12:02:59;38.13;;;13.10;;
77868;SDS011;67231;59.144;37.934;2024-01-30T12:05:27;32.50;;;11.80;;
77868;SDS011;67231;59.144;37.934;2024-01-30T12:07:54;39.20;;;13.70;;
77868;SDS011;67231;59.144;37.934;2024-01-30T12:10:21;43.47;;;14.75;;
77868;SDS011;67231;59.144;37.934;2024-01-30T12:12:48;45.10;;;13.95;;
77868;SDS011;67231;59.144;37.934;2024-01-30T12:15:16;34.08;;;9.95;;
77868;SDS011;67231;59.144;37.934;2024-01-30T12:17:47;36.70;;;9.07;;
77868;SDS011;67231;59.144;37.934;2024-01-30T12:20:14;28.70;;;8.50;;
77868;SDS011;67231;59.144;37.934;2024-01-30T12:22:45;29.65;;;8.15;;
77868;SDS011;67231;59.144;37.934;2024-01-30T12:25:17;29.00;;;9.00;;
77868;SDS011;67231;59.144;37.934;2024-01-30T12:27:47;28.05;;;8.32;;
77868;SDS011;67231;59.144;37.934;2024-01-30T12:30:17;34.97;;;11.10;;
77868;SDS011;67231;59.144;37.934;2024-01-30T12:32:46;36.03;;;8.82;;
77868;SDS011;67231;59.144;37.934;2024-01-30T12:35:15;25.30;;;7.38;;
77868;SDS011;67231;59.144;37.934;2024-01-30T12:37:44;26.45;;;6.80;;
77868;SDS011;67231;59.144;37.934;2024-01-30T12:40:11;27.13;;;6.68;;
77868;SDS011;67231;59.144;37.934;2024-01-30T12:42:41;20.10;;;6.70;;
77868;SDS011;67231;59.144;37.934;2024-01-30T12:45:08;27.52;;;7.65;;
77868;SDS011;67231;59.144;37.934;2024-01-30T12:47:35;20.20;;;6.45;;
77868;SDS011;67231;59.144;37.934;2024-01-30T12:50:02;22.58;;;5.63;;
77868;SDS011;67231;59.144;37.934;2024-01-30T12:52:29;19.23;;;5.47;;
77868;SDS011;67231;59.144;37.934;2024-01-30T12:54:55;15.77;;;5.95;;
77868;SDS011;67231;59.144;37.934;2024-01-30T12:57:22;19.92;;;5.65;;
77868;SDS011;67231;59.144;37.934;2024-01-30T12:59:48;34.80;;;7.97;;
77868;SDS011;67231;59.144;37.934;2024-01-30T13:02:15;31.33;;;7.18;;
77868;SDS011;67231;59.144;37.934;2024-01-30T13:04:41;27.48;;;7.18;;
77868;SDS011;67231;59.144;37.934;2024-01-30T13:07:08;34.17;;;7.20;;
77868;SDS011;67231;59.144;37.934;2024-01-30T13:09:35;32.40;;;7.30;;
77868;SDS011;67231;59.144;37.934;2024-01-30T13:12:01;28.85;;;7.70;;
77868;SDS011;67231;59.144;37.934;2024-01-30T13:14:27;29.63;;;7.05;;
77868;SDS011;67231;59.144;37.934;2024-01-30T13:16:54;27.75;;;7.80;;
77868;SDS011;67231;59.144;37.934;2024-01-30T13:19:20;16.60;;;7.05;;
77868;SDS011;67231;59.144;37.934;2024-01-30T13:21:46;36.70;;;7.50;;
77868;SDS011;67231;59.144;37.934;2024-01-30T13:24:13;37.50;;;7.00;;
77868;SDS011;67231;59.144;37.934;2024-01-30T13:26:41;26.40;;;7.45;;
77868;SDS011;67231;59.144;37.934;2024-01-30T13:29:09;28.02;;;7.53;;
77868;SDS011;67231;59.144;37.934;2024-01-30T13:31:35;30.10;;;7.30;;
77868;SDS011;67231;59.144;37.934;2024-01-30T13:34:02;25.35;;;7.78;;
77868;SDS011;67231;59.144;37.934;2024-01-30T13:36:28;32.22;;;6.53;;
77868;SDS011;67231;59.144;37.934;2024-01-30T13:38:55;32.42;;;7.38;;
77868;SDS011;67231;59.144;37.934;2024-01-30T13:41:21;29.88;;;7.78;;
77868;SDS011;67231;59.144;37.934;2024-01-30T13:43:49;37.03;;;7.60;;
77868;SDS011;67231;59.144;37.934;2024-01-30T13:46:15;25.15;;;6.93;;
77868;SDS011;67231;59.144;37.934;2024-01-30T13:48:42;25.00;;;7.57;;
77868;SDS011;67231;59.144;37.934;2024-01-30T13:51:08;24.60;;;8.43;;
77868;SDS011;67231;59.144;37.934;2024-01-30T13:53:40;36.35;;;8.43;;
77868;SDS011;67231;59.144;37.934;2024-01-30T13:56:06;39.60;;;9.40;;
77868;SDS011;67231;59.144;37.934;2024-01-30T13:58:33;30.83;;;7.03;;
77868;SDS011;67231;59.144;37.934;2024-01-30T14:01:02;17.45;;;4.35;;
77868;SDS011;67231;59.144;37.934;2024-01-30T14:03:28;27.95;;;8.32;;
77868;SDS011;67231;59.144;37.934;2024-01-30T14:05:54;31.85;;;9.18;;
77868;SDS011;67231;59.144;37.934;2024-01-30T14:08:21;23.05;;;10.20;;
77868;SDS011;67231;59.144;37.934;2024-01-30T14:10:49;44.88;;;15.45;;
77868;SDS011;67231;59.144;37.934;2024-01-30T14:13:16;32.97;;;15.70;;
77868;SDS011;67231;59.144;37.934;2024-01-30T14:15:42;54.13;;;20.02;;
77868;SDS011;67231;59.144;37.934;2024-01-30T14:18:09;64.18;;;26.88;;